sensor_id;sensor_type;location;lat;lon;timestamp;P1;durP1;ratioP1;P2;durP2;ratioP2
5121;SDS011;2563;52.242;7.956;2022-08-19T00:00:03;11.83;;;6.87;;
5121;SDS011;2563;52.242;7.956;2022-08-19T00:02:31;13.70;;;7.70;;
5121;SDS011;2563;52.242;7.956;2022-08-19T00:04:56;14.07;;;8.13;;
5121;SDS011;2563;52.242;7.956;2022-08-19T00:07:22;12.00;;;7.50;;
5121;SDS011;2563;52.242;7.956;2022-08-19T00:09:47;11.57;;;6.63;;
5121;SDS011;2563;52.242;7.956;2022-08-19T00:12:12;13.00;;;6.73;;
5121;SDS011;2563;52.242;7.956;2022-08-19T00:14:38;13.20;;;6.73;;
5121;SDS011;2563;52.242;7.956;2022-08-19T00:17:04;11.73;;;7.00;;
5121;SDS011;2563;52.242;7.956;2022-08-19T00:19:31;9.70;;;6.30;;
5121;SDS011;2563;52.242;7.956;2022-08-19T00:21:57;10.77;;;6.10;;
5121;SDS011;2563;52.242;7.956;2022-08-19T00:24:23;14.60;;;7.17;;
5121;SDS011;2563;52.242;7.956;2022-08-19T00:26:49;11.90;;;6.57;;
5121;SDS011;2563;52.242;7.956;2022-08-19T00:29:16;11.30;;;6.93;;
5121;SDS011;2563;52.242;7.956;2022-08-19T00:31:43;13.07;;;7.10;;
5121;SDS011;2563;52.242;7.956;2022-08-19T00:34:10;11.70;;;7.70;;
5121;SDS011;2563;52.242;7.956;2022-08-19T00:36:37;11.87;;;6.50;;
5121;SDS011;2563;52.242;7.956;2022-08-19T00:39:02;16.13;;;6.80;;
5121;SDS011;2563;52.242;7.956;2022-08-19T00:41:28;12.33;;;6.83;;
5121;SDS011;2563;52.242;7.956;2022-08-19T00:44:02;11.43;;;6.70;;
5121;SDS011;2563;52.242;7.956;2022-08-19T00:46:33;12.40;;;7.00;;
5121;SDS011;2563;52.242;7.956;2022-08-19T00:49:02;11.60;;;7.43;;
5121;SDS011;2563;52.242;7.956;2022-08-19T00:51:34;13.23;;;7.70;;
5121;SDS011;2563;52.242;7.956;2022-08-19T00:54:01;16.30;;;7.13;;
5121;SDS011;2563;52.242;7.956;2022-08-19T00:56:27;13.63;;;6.87;;
5121;SDS011;2563;52.242;7.956;2022-08-19T00:58:53;13.10;;;7.33;;
5121;SDS011;2563;52.242;7.956;2022-08-19T01:01:21;9.70;;;6.20;;
5121;SDS011;2563;52.242;7.956;2022-08-19T01:03:46;13.93;;;6.90;;
5121;SDS011;2563;52.242;7.956;2022-08-19T01:06:12;11.60;;;6.10;;
5121;SDS011;2563;52.242;7.956;2022-08-19T01:08:37;13.00;;;5.60;;
5121;SDS011;2563;52.242;7.956;2022-08-19T01:11:02;11.43;;;6.80;;
5121;SDS011;2563;52.242;7.956;2022-08-19T01:13:30;12.47;;;5.93;;
5121;SDS011;2563;52.242;7.956;2022-08-19T01:15:59;12.90;;;6.20;;
5121;SDS011;2563;52.242;7.956;2022-08-19T01:18:28;11.10;;;6.87;;
5121;SDS011;2563;52.242;7.956;2022-08-19T01:20:56;12.10;;;7.07;;
5121;SDS011;2563;52.242;7.956;2022-08-19T01:23:26;13.57;;;6.93;;
5121;SDS011;2563;52.242;7.956;2022-08-19T01:26:07;14.00;;;6.30;;
5121;SDS011;2563;52.242;7.956;2022-08-19T01:28:38;11.30;;;6.13;;
5121;SDS011;2563;52.242;7.956;2022-08-19T01:31:08;11.93;;;7.40;;
5121;SDS011;2563;52.242;7.956;2022-08-19T01:33:36;12.10;;;7.20;;
5121;SDS011;2563;52.242;7.956;2022-08-19T01:36:45;11.77;;;6.03;;
5121;SDS011;2563;52.242;7.956;2022-08-19T01:38:54;14.60;;;6.23;;
5121;SDS011;2563;52.242;7.956;2022-08-19T01:41:20;16.70;;;7.17;;
5121;SDS011;2563;52.242;7.956;2022-08-19T01:43:48;9.73;;;5.60;;
5121;SDS011;2563;52.242;7.956;2022-08-19T01:46:15;13.50;;;6.40;;
5121;SDS011;2563;52.242;7.956;2022-08-19T01:48:41;13.73;;;6.23;;
5121;SDS011;2563;52.242;7.956;2022-08-19T01:51:07;12.80;;;6.00;;
5121;SDS011;2563;52.242;7.956;2022-08-19T01:53:34;14.80;;;7.10;;
5121;SDS011;2563;52.242;7.956;2022-08-19T01:56:00;11.03;;;5.97;;
5121;SDS011;2563;52.242;7.956;2022-08-19T01:58:27;15.53;;;6.70;;
5121;SDS011;2563;52.242;7.956;2022-08-19T02:00:57;13.40;;;6.70;;
5121;SDS011;2563;52.242;7.956;2022-08-19T02:03:23;16.10;;;6.57;;
5121;SDS011;2563;52.242;7.956;2022-08-19T02:05:53;15.00;;;6.87;;
5121;SDS011;2563;52.242;7.956;2022-08-19T02:08:27;12.03;;;6.60;;
5121;SDS011;2563;52.242;7.956;2022-08-19T02:10:54;13.90;;;6.63;;
5121;SDS011;2563;52.242;7.956;2022-08-19T02:13:20;13.10;;;7.73;;
5121;SDS011;2563;52.242;7.956;2022-08-19T02:15:45;14.10;;;6.90;;
5121;SDS011;2563;52.242;7.956;2022-08-19T02:18:10;11.87;;;6.80;;
5121;SDS011;2563;52.242;7.956;2022-08-19T02:20:36;11.70;;;6.80;;
5121;SDS011;2563;52.242;7.956;2022-08-19T02:23:03;14.67;;;7.50;;
5121;SDS011;2563;52.242;7.956;2022-08-19T02:25:29;11.57;;;7.20;;
5121;SDS011;2563;52.242;7.956;2022-08-19T02:27:54;11.10;;;6.87;;
5121;SDS011;2563;52.242;7.956;2022-08-19T02:30:20;12.07;;;6.47;;
5121;SDS011;2563;52.242;7.956;2022-08-19T02:32:46;14.33;;;7.37;;
5121;SDS011;2563;52.242;7.956;2022-08-19T02:35:12;14.20;;;7.83;;
5121;SDS011;2563;52.242;7.956;2022-08-19T02:37:38;12.97;;;7.43;;
5121;SDS011;2563;52.242;7.956;2022-08-19T02:40:23;13.33;;;7.80;;
5121;SDS011;2563;52.242;7.956;2022-08-19T02:42:49;14.90;;;8.40;;
5121;SDS011;2563;52.242;7.956;2022-08-19T02:45:14;18.63;;;8.63;;
5121;SDS011;2563;52.242;7.956;2022-08-19T02:47:40;17.00;;;9.70;;
5121;SDS011;2563;52.242;7.956;2022-08-19T02:50:05;14.47;;;8.50;;
5121;SDS011;2563;52.242;7.956;2022-08-19T02:52:32;14.73;;;7.63;;
5121;SDS011;2563;52.242;7.956;2022-08-19T02:54:58;21.10;;;9.20;;
5121;SDS011;2563;52.242;7.956;2022-08-19T02:57:24;18.77;;;9.30;;
5121;SDS011;2563;52.242;7.956;2022-08-19T02:59:49;15.80;;;9.97;;
5121;SDS011;2563;52.242;7.956;2022-08-19T03:02:15;16.33;;;9.33;;
5121;SDS011;2563;52.242;7.956;2022-08-19T03:04:41;20.97;;;9.70;;
5121;SDS011;2563;52.242;7.956;2022-08-19T03:07:07;20.20;;;10.50;;
5121;SDS011;2563;52.242;7.956;2022-08-19T03:09:33;15.87;;;10.00;;
5121;SDS011;2563;52.242;7.956;2022-08-19T03:12:02;19.60;;;9.90;;
5121;SDS011;2563;52.242;7.956;2022-08-19T03:14:30;18.57;;;9.50;;
5121;SDS011;2563;52.242;7.956;2022-08-19T03:16:55;21.27;;;12.13;;
5121;SDS011;2563;52.242;7.956;2022-08-19T03:19:21;17.73;;;9.50;;
5121;SDS011;2563;52.242;7.956;2022-08-19T03:21:46;17.10;;;9.93;;
5121;SDS011;2563;52.242;7.956;2022-08-19T03:24:12;15.90;;;9.03;;
5121;SDS011;2563;52.242;7.956;2022-08-19T03:26:40;15.77;;;9.07;;
5121;SDS011;2563;52.242;7.956;2022-08-19T03:29:07;19.67;;;9.17;;
5121;SDS011;2563;52.242;7.956;2022-08-19T03:31:35;16.10;;;9.10;;
5121;SDS011;2563;52.242;7.956;2022-08-19T03:34:00;17.10;;;9.00;;
5121;SDS011;2563;52.242;7.956;2022-08-19T03:36:25;16.67;;;10.13;;
5121;SDS011;2563;52.242;7.956;2022-08-19T03:38:53;19.33;;;9.80;;
5121;SDS011;2563;52.242;7.956;2022-08-19T03:41:22;16.03;;;9.90;;
5121;SDS011;2563;52.242;7.956;2022-08-19T03:43:57;15.60;;;9.10;;
5121;SDS011;2563;52.242;7.956;2022-08-19T03:46:25;15.87;;;8.90;;
5121;SDS011;2563;52.242;7.956;2022-08-19T03:48:56;15.10;;;9.03;;
5121;SDS011;2563;52.242;7.956;2022-08-19T03:51:24;15.70;;;8.33;;
5121;SDS011;2563;52.242;7.956;2022-08-19T03:53:50;17.73;;;10.40;;
5121;SDS011;2563;52.242;7.956;2022-08-19T03:56:16;19.80;;;9.53;;
5121;SDS011;2563;52.242;7.956;2022-08-19T03:58:42;21.33;;;9.37;;
5121;SDS011;2563;52.242;7.956;2022-08-19T04:01:14;19.03;;;9.33;;
5121;SDS011;2563;52.242;7.956;2022-08-19T04:03:42;17.30;;;9.77;;
5121;SDS011;2563;52.242;7.956;2022-08-19T04:06:18;22.87;;;10.53;;
5121;SDS011;2563;52.242;7.956;2022-08-19T04:08:47;17.90;;;10.10;;
5121;SDS011;2563;52.242;7.956;2022-08-19T04:11:16;20.97;;;10.80;;
5121;SDS011;2563;52.242;7.956;2022-08-19T04:13:46;20.20;;;11.27;;
5121;SDS011;2563;52.242;7.956;2022-08-19T04:16:11;16.53;;;9.07;;
5121;SDS011;2563;52.242;7.956;2022-08-19T04:18:37;22.53;;;11.13;;
5121;SDS011;2563;52.242;7.956;2022-08-19T04:21:04;16.87;;;9.20;;
5121;SDS011;2563;52.242;7.956;2022-08-19T04:23:30;19.47;;;9.40;;
5121;SDS011;2563;52.242;7.956;2022-08-19T04:25:56;15.57;;;8.63;;
5121;SDS011;2563;52.242;7.956;2022-08-19T04:28:22;17.70;;;9.20;;
5121;SDS011;2563;52.242;7.956;2022-08-19T04:30:49;19.63;;;9.83;;
5121;SDS011;2563;52.242;7.956;2022-08-19T04:33:18;17.03;;;9.47;;
5121;SDS011;2563;52.242;7.956;2022-08-19T04:35:50;18.50;;;10.70;;
5121;SDS011;2563;52.242;7.956;2022-08-19T04:38:18;19.17;;;10.00;;
5121;SDS011;2563;52.242;7.956;2022-08-19T04:40:46;14.93;;;8.63;;
5121;SDS011;2563;52.242;7.956;2022-08-19T04:43:32;23.63;;;10.87;;
5121;SDS011;2563;52.242;7.956;2022-08-19T04:46:04;19.33;;;11.00;;
5121;SDS011;2563;52.242;7.956;2022-08-19T04:48:38;20.43;;;9.70;;
5121;SDS011;2563;52.242;7.956;2022-08-19T04:51:09;20.87;;;10.00;;
5121;SDS011;2563;52.242;7.956;2022-08-19T04:53:36;21.33;;;9.97;;
5121;SDS011;2563;52.242;7.956;2022-08-19T04:56:08;17.70;;;9.70;;
5121;SDS011;2563;52.242;7.956;2022-08-19T04:58:36;21.13;;;9.37;;
5121;SDS011;2563;52.242;7.956;2022-08-19T05:01:03;18.70;;;9.70;;
5121;SDS011;2563;52.242;7.956;2022-08-19T05:03:29;21.03;;;10.47;;
5121;SDS011;2563;52.242;7.956;2022-08-19T05:05:58;20.73;;;9.30;;
5121;SDS011;2563;52.242;7.956;2022-08-19T05:08:28;13.93;;;8.03;;
5121;SDS011;2563;52.242;7.956;2022-08-19T05:10:55;15.50;;;7.97;;
5121;SDS011;2563;52.242;7.956;2022-08-19T05:13:22;14.70;;;8.17;;
5121;SDS011;2563;52.242;7.956;2022-08-19T05:15:55;16.13;;;8.60;;
5121;SDS011;2563;52.242;7.956;2022-08-19T05:18:22;17.23;;;9.40;;
5121;SDS011;2563;52.242;7.956;2022-08-19T05:21:14;18.07;;;9.37;;
5121;SDS011;2563;52.242;7.956;2022-08-19T05:24:00;15.80;;;9.00;;
5121;SDS011;2563;52.242;7.956;2022-08-19T05:26:27;18.97;;;8.07;;
5121;SDS011;2563;52.242;7.956;2022-08-19T05:28:53;18.20;;;8.80;;
5121;SDS011;2563;52.242;7.956;2022-08-19T05:31:19;19.60;;;9.83;;
5121;SDS011;2563;52.242;7.956;2022-08-19T05:33:44;19.13;;;9.43;;
5121;SDS011;2563;52.242;7.956;2022-08-19T05:36:10;22.23;;;9.33;;
5121;SDS011;2563;52.242;7.956;2022-08-19T05:38:36;24.87;;;10.83;;
5121;SDS011;2563;52.242;7.956;2022-08-19T05:41:11;21.40;;;9.80;;
5121;SDS011;2563;52.242;7.956;2022-08-19T05:43:37;20.60;;;11.30;;
5121;SDS011;2563;52.242;7.956;2022-08-19T05:46:04;20.20;;;10.07;;
5121;SDS011;2563;52.242;7.956;2022-08-19T05:48:31;21.50;;;11.77;;
5121;SDS011;2563;52.242;7.956;2022-08-19T05:50:57;30.20;;;11.63;;
5121;SDS011;2563;52.242;7.956;2022-08-19T05:53:27;22.33;;;11.60;;
5121;SDS011;2563;52.242;7.956;2022-08-19T05:55:53;23.93;;;12.53;;
5121;SDS011;2563;52.242;7.956;2022-08-19T05:58:18;26.20;;;12.80;;
5121;SDS011;2563;52.242;7.956;2022-08-19T06:00:44;25.40;;;12.40;;
5121;SDS011;2563;52.242;7.956;2022-08-19T06:03:09;25.40;;;11.80;;
5121;SDS011;2563;52.242;7.956;2022-08-19T06:05:35;22.47;;;12.33;;
5121;SDS011;2563;52.242;7.956;2022-08-19T06:08:03;26.67;;;12.37;;
5121;SDS011;2563;52.242;7.956;2022-08-19T06:10:30;19.70;;;11.17;;
5121;SDS011;2563;52.242;7.956;2022-08-19T06:12:55;23.17;;;12.03;;
5121;SDS011;2563;52.242;7.956;2022-08-19T06:15:21;23.03;;;11.57;;
5121;SDS011;2563;52.242;7.956;2022-08-19T06:17:51;23.23;;;11.23;;
5121;SDS011;2563;52.242;7.956;2022-08-19T06:20:16;22.60;;;11.00;;
5121;SDS011;2563;52.242;7.956;2022-08-19T06:22:44;24.63;;;12.00;;
5121;SDS011;2563;52.242;7.956;2022-08-19T06:25:11;22.90;;;12.13;;
5121;SDS011;2563;52.242;7.956;2022-08-19T06:27:39;20.20;;;10.90;;
5121;SDS011;2563;52.242;7.956;2022-08-19T06:30:06;25.00;;;12.13;;
5121;SDS011;2563;52.242;7.956;2022-08-19T06:32:32;20.63;;;10.73;;
5121;SDS011;2563;52.242;7.956;2022-08-19T06:34:57;19.07;;;10.60;;
5121;SDS011;2563;52.242;7.956;2022-08-19T06:37:23;21.80;;;11.40;;
5121;SDS011;2563;52.242;7.956;2022-08-19T06:39:48;19.30;;;10.93;;
5121;SDS011;2563;52.242;7.956;2022-08-19T06:42:14;25.70;;;10.70;;
5121;SDS011;2563;52.242;7.956;2022-08-19T06:44:43;21.27;;;10.00;;
5121;SDS011;2563;52.242;7.956;2022-08-19T06:47:12;18.67;;;9.93;;
5121;SDS011;2563;52.242;7.956;2022-08-19T06:49:39;21.10;;;9.60;;
5121;SDS011;2563;52.242;7.956;2022-08-19T06:52:05;15.33;;;8.60;;
5121;SDS011;2563;52.242;7.956;2022-08-19T06:54:32;15.57;;;8.13;;
5121;SDS011;2563;52.242;7.956;2022-08-19T06:56:58;14.30;;;8.83;;
5121;SDS011;2563;52.242;7.956;2022-08-19T06:59:28;14.50;;;8.20;;
5121;SDS011;2563;52.242;7.956;2022-08-19T07:01:57;13.40;;;8.57;;
5121;SDS011;2563;52.242;7.956;2022-08-19T07:04:26;15.37;;;7.73;;
5121;SDS011;2563;52.242;7.956;2022-08-19T07:06:58;14.77;;;7.63;;
5121;SDS011;2563;52.242;7.956;2022-08-19T07:09:25;15.93;;;7.80;;
5121;SDS011;2563;52.242;7.956;2022-08-19T07:11:51;12.97;;;7.00;;
5121;SDS011;2563;52.242;7.956;2022-08-19T07:14:18;12.17;;;6.90;;
5121;SDS011;2563;52.242;7.956;2022-08-19T07:16:46;14.63;;;6.30;;
5121;SDS011;2563;52.242;7.956;2022-08-19T07:19:13;13.47;;;6.57;;
5121;SDS011;2563;52.242;7.956;2022-08-19T07:21:39;13.17;;;6.80;;
5121;SDS011;2563;52.242;7.956;2022-08-19T07:24:06;16.90;;;6.53;;
5121;SDS011;2563;52.242;7.956;2022-08-19T07:26:33;15.00;;;6.27;;
5121;SDS011;2563;52.242;7.956;2022-08-19T07:29:04;12.57;;;5.40;;
5121;SDS011;2563;52.242;7.956;2022-08-19T07:31:30;11.67;;;6.00;;
5121;SDS011;2563;52.242;7.956;2022-08-19T07:33:56;11.33;;;5.13;;
5121;SDS011;2563;52.242;7.956;2022-08-19T07:36:26;15.10;;;6.27;;
5121;SDS011;2563;52.242;7.956;2022-08-19T07:38:56;9.23;;;5.20;;
5121;SDS011;2563;52.242;7.956;2022-08-19T07:41:23;9.53;;;5.40;;
5121;SDS011;2563;52.242;7.956;2022-08-19T07:43:50;9.40;;;5.87;;
5121;SDS011;2563;52.242;7.956;2022-08-19T07:46:17;9.80;;;6.00;;
5121;SDS011;2563;52.242;7.956;2022-08-19T07:48:45;12.70;;;6.57;;
5121;SDS011;2563;52.242;7.956;2022-08-19T07:51:13;11.43;;;5.40;;
5121;SDS011;2563;52.242;7.956;2022-08-19T07:53:40;12.07;;;5.13;;
5121;SDS011;2563;52.242;7.956;2022-08-19T07:56:05;12.80;;;5.53;;
5121;SDS011;2563;52.242;7.956;2022-08-19T07:58:32;10.00;;;5.23;;
5121;SDS011;2563;52.242;7.956;2022-08-19T08:01:00;10.43;;;5.40;;
5121;SDS011;2563;52.242;7.956;2022-08-19T08:03:26;8.87;;;4.97;;
5121;SDS011;2563;52.242;7.956;2022-08-19T08:06:12;9.10;;;4.60;;
5121;SDS011;2563;52.242;7.956;2022-08-19T08:08:57;10.80;;;5.10;;
5121;SDS011;2563;52.242;7.956;2022-08-19T08:11:36;8.90;;;4.40;;
5121;SDS011;2563;52.242;7.956;2022-08-19T08:14:07;7.73;;;4.63;;
5121;SDS011;2563;52.242;7.956;2022-08-19T08:16:36;10.43;;;4.40;;
5121;SDS011;2563;52.242;7.956;2022-08-19T08:19:04;9.03;;;4.80;;
5121;SDS011;2563;52.242;7.956;2022-08-19T08:21:30;9.87;;;5.30;;
5121;SDS011;2563;52.242;7.956;2022-08-19T08:23:56;10.77;;;5.30;;
5121;SDS011;2563;52.242;7.956;2022-08-19T08:26:22;9.70;;;4.97;;
5121;SDS011;2563;52.242;7.956;2022-08-19T08:28:48;10.43;;;4.23;;
5121;SDS011;2563;52.242;7.956;2022-08-19T08:31:13;10.67;;;5.03;;
5121;SDS011;2563;52.242;7.956;2022-08-19T08:33:39;8.27;;;4.50;;
5121;SDS011;2563;52.242;7.956;2022-08-19T08:36:07;10.93;;;4.37;;
5121;SDS011;2563;52.242;7.956;2022-08-19T08:38:33;9.13;;;5.00;;
5121;SDS011;2563;52.242;7.956;2022-08-19T08:41:01;8.50;;;5.03;;
5121;SDS011;2563;52.242;7.956;2022-08-19T08:43:51;12.17;;;5.13;;
5121;SDS011;2563;52.242;7.956;2022-08-19T08:51:23;12.20;;;5.47;;
5121;SDS011;2563;52.242;7.956;2022-08-19T08:53:58;7.37;;;4.60;;
5121;SDS011;2563;52.242;7.956;2022-08-19T08:56:24;10.53;;;4.70;;
5121;SDS011;2563;52.242;7.956;2022-08-19T08:59:03;11.43;;;5.00;;
5121;SDS011;2563;52.242;7.956;2022-08-19T09:01:33;7.60;;;4.47;;
5121;SDS011;2563;52.242;7.956;2022-08-19T09:03:59;7.10;;;4.00;;
5121;SDS011;2563;52.242;7.956;2022-08-19T09:09:16;5.60;;;3.63;;
5121;SDS011;2563;52.242;7.956;2022-08-19T09:12:50;11.30;;;4.73;;
5121;SDS011;2563;52.242;7.956;2022-08-19T09:14:56;7.57;;;4.70;;
5121;SDS011;2563;52.242;7.956;2022-08-19T09:17:27;6.47;;;4.57;;
5121;SDS011;2563;52.242;7.956;2022-08-19T09:20:31;6.63;;;4.03;;
5121;SDS011;2563;52.242;7.956;2022-08-19T09:22:50;7.33;;;4.10;;
5121;SDS011;2563;52.242;7.956;2022-08-19T09:25:17;7.77;;;4.93;;
5121;SDS011;2563;52.242;7.956;2022-08-19T09:27:46;6.70;;;4.87;;
5121;SDS011;2563;52.242;7.956;2022-08-19T09:30:18;8.57;;;4.30;;
5121;SDS011;2563;52.242;7.956;2022-08-19T09:32:46;8.70;;;4.17;;
5121;SDS011;2563;52.242;7.956;2022-08-19T09:35:13;7.63;;;4.63;;
5121;SDS011;2563;52.242;7.956;2022-08-19T09:37:40;9.40;;;4.47;;
5121;SDS011;2563;52.242;7.956;2022-08-19T09:40:07;17.20;;;4.67;;
5121;SDS011;2563;52.242;7.956;2022-08-19T09:42:33;12.87;;;4.30;;
5121;SDS011;2563;52.242;7.956;2022-08-19T09:44:59;6.73;;;4.83;;
5121;SDS011;2563;52.242;7.956;2022-08-19T09:47:25;7.00;;;4.53;;
5121;SDS011;2563;52.242;7.956;2022-08-19T09:49:50;6.53;;;4.40;;
5121;SDS011;2563;52.242;7.956;2022-08-19T09:52:15;9.80;;;4.73;;
5121;SDS011;2563;52.242;7.956;2022-08-19T09:54:41;5.20;;;4.13;;
5121;SDS011;2563;52.242;7.956;2022-08-19T09:57:06;6.83;;;4.70;;
5121;SDS011;2563;52.242;7.956;2022-08-19T09:59:32;7.30;;;4.87;;
5121;SDS011;2563;52.242;7.956;2022-08-19T10:01:58;5.90;;;4.40;;
5121;SDS011;2563;52.242;7.956;2022-08-19T10:04:24;8.90;;;4.33;;
5121;SDS011;2563;52.242;7.956;2022-08-19T10:07:10;8.93;;;5.83;;
5121;SDS011;2563;52.242;7.956;2022-08-19T10:09:35;6.50;;;5.13;;
5121;SDS011;2563;52.242;7.956;2022-08-19T10:12:01;8.13;;;5.43;;
5121;SDS011;2563;52.242;7.956;2022-08-19T10:14:29;7.13;;;4.97;;
5121;SDS011;2563;52.242;7.956;2022-08-19T10:16:54;8.60;;;5.37;;
5121;SDS011;2563;52.242;7.956;2022-08-19T10:19:21;8.63;;;5.10;;
5121;SDS011;2563;52.242;7.956;2022-08-19T10:21:46;6.03;;;4.60;;
5121;SDS011;2563;52.242;7.956;2022-08-19T10:24:12;6.43;;;4.60;;
5121;SDS011;2563;52.242;7.956;2022-08-19T10:26:38;6.13;;;4.70;;
5121;SDS011;2563;52.242;7.956;2022-08-19T10:29:07;7.93;;;3.90;;
5121;SDS011;2563;52.242;7.956;2022-08-19T10:31:33;6.70;;;3.73;;
5121;SDS011;2563;52.242;7.956;2022-08-19T10:33:59;7.63;;;4.27;;
5121;SDS011;2563;52.242;7.956;2022-08-19T10:36:27;6.30;;;3.93;;
5121;SDS011;2563;52.242;7.956;2022-08-19T10:38:56;4.87;;;3.60;;
5121;SDS011;2563;52.242;7.956;2022-08-19T10:41:24;6.50;;;3.80;;
5121;SDS011;2563;52.242;7.956;2022-08-19T10:43:52;5.33;;;3.10;;
5121;SDS011;2563;52.242;7.956;2022-08-19T10:46:20;5.30;;;3.83;;
5121;SDS011;2563;52.242;7.956;2022-08-19T10:48:47;6.43;;;3.50;;
5121;SDS011;2563;52.242;7.956;2022-08-19T10:51:16;5.67;;;3.80;;
5121;SDS011;2563;52.242;7.956;2022-08-19T10:54:00;9.60;;;4.30;;
5121;SDS011;2563;52.242;7.956;2022-08-19T10:56:26;8.23;;;3.60;;
5121;SDS011;2563;52.242;7.956;2022-08-19T10:59:11;4.93;;;3.40;;
5121;SDS011;2563;52.242;7.956;2022-08-19T11:01:38;5.73;;;3.80;;
5121;SDS011;2563;52.242;7.956;2022-08-19T11:04:05;5.80;;;4.10;;
5121;SDS011;2563;52.242;7.956;2022-08-19T11:06:35;4.60;;;3.50;;
5121;SDS011;2563;52.242;7.956;2022-08-19T11:09:01;4.87;;;3.83;;
5121;SDS011;2563;52.242;7.956;2022-08-19T11:11:27;12.13;;;4.53;;
5121;SDS011;2563;52.242;7.956;2022-08-19T11:13:53;4.20;;;3.80;;
5121;SDS011;2563;52.242;7.956;2022-08-19T11:16:19;5.67;;;3.47;;
5121;SDS011;2563;52.242;7.956;2022-08-19T11:18:48;9.27;;;3.70;;
5121;SDS011;2563;52.242;7.956;2022-08-19T11:21:17;6.60;;;4.70;;
5121;SDS011;2563;52.242;7.956;2022-08-19T11:23:54;4.10;;;3.57;;
5121;SDS011;2563;52.242;7.956;2022-08-19T11:26:22;7.53;;;4.30;;
5121;SDS011;2563;52.242;7.956;2022-08-19T11:28:48;6.50;;;3.60;;
5121;SDS011;2563;52.242;7.956;2022-08-19T11:31:17;6.27;;;4.47;;
5121;SDS011;2563;52.242;7.956;2022-08-19T11:33:43;6.83;;;4.37;;
5121;SDS011;2563;52.242;7.956;2022-08-19T11:36:11;5.27;;;4.00;;
5121;SDS011;2563;52.242;7.956;2022-08-19T11:38:36;5.53;;;3.90;;
5121;SDS011;2563;52.242;7.956;2022-08-19T11:41:04;5.30;;;4.00;;
5121;SDS011;2563;52.242;7.956;2022-08-19T11:43:32;6.87;;;3.50;;
5121;SDS011;2563;52.242;7.956;2022-08-19T11:45:58;4.00;;;3.60;;
5121;SDS011;2563;52.242;7.956;2022-08-19T11:48:24;7.57;;;4.67;;
5121;SDS011;2563;52.242;7.956;2022-08-19T11:50:51;8.33;;;4.10;;
5121;SDS011;2563;52.242;7.956;2022-08-19T11:53:17;7.97;;;4.33;;
5121;SDS011;2563;52.242;7.956;2022-08-19T11:55:45;6.40;;;4.30;;
5121;SDS011;2563;52.242;7.956;2022-08-19T11:58:12;7.30;;;4.73;;
5121;SDS011;2563;52.242;7.956;2022-08-19T12:00:38;11.77;;;4.10;;
5121;SDS011;2563;52.242;7.956;2022-08-19T12:03:05;4.80;;;4.30;;
5121;SDS011;2563;52.242;7.956;2022-08-19T12:05:31;5.43;;;4.33;;
5121;SDS011;2563;52.242;7.956;2022-08-19T12:07:56;5.60;;;4.10;;
5121;SDS011;2563;52.242;7.956;2022-08-19T12:10:22;5.07;;;3.50;;
5121;SDS011;2563;52.242;7.956;2022-08-19T12:12:48;5.20;;;4.10;;
5121;SDS011;2563;52.242;7.956;2022-08-19T12:15:14;6.07;;;4.40;;
5121;SDS011;2563;52.242;7.956;2022-08-19T12:17:40;6.97;;;4.30;;
5121;SDS011;2563;52.242;7.956;2022-08-19T12:20:07;4.23;;;3.80;;
5121;SDS011;2563;52.242;7.956;2022-08-19T12:22:35;5.00;;;4.50;;
5121;SDS011;2563;52.242;7.956;2022-08-19T12:25:02;4.23;;;3.67;;
5121;SDS011;2563;52.242;7.956;2022-08-19T12:27:28;4.13;;;3.73;;
5121;SDS011;2563;52.242;7.956;2022-08-19T12:29:54;5.37;;;4.03;;
5121;SDS011;2563;52.242;7.956;2022-08-19T12:32:19;3.93;;;3.53;;
5121;SDS011;2563;52.242;7.956;2022-08-19T12:34:44;5.73;;;3.50;;
5121;SDS011;2563;52.242;7.956;2022-08-19T12:37:12;4.73;;;3.63;;
5121;SDS011;2563;52.242;7.956;2022-08-19T12:39:39;5.50;;;4.03;;
5121;SDS011;2563;52.242;7.956;2022-08-19T12:42:10;4.37;;;3.97;;
5121;SDS011;2563;52.242;7.956;2022-08-19T12:44:38;5.53;;;3.57;;
5121;SDS011;2563;52.242;7.956;2022-08-19T12:47:05;4.90;;;4.40;;
5121;SDS011;2563;52.242;7.956;2022-08-19T12:49:31;6.40;;;4.00;;
5121;SDS011;2563;52.242;7.956;2022-08-19T12:51:59;4.50;;;4.10;;
5121;SDS011;2563;52.242;7.956;2022-08-19T12:54:25;5.23;;;4.10;;
5121;SDS011;2563;52.242;7.956;2022-08-19T12:56:51;4.37;;;3.97;;
5121;SDS011;2563;52.242;7.956;2022-08-19T12:59:17;4.50;;;3.80;;
5121;SDS011;2563;52.242;7.956;2022-08-19T13:01:44;8.17;;;4.20;;
5121;SDS011;2563;52.242;7.956;2022-08-19T13:04:10;5.80;;;4.07;;
5121;SDS011;2563;52.242;7.956;2022-08-19T13:06:36;4.40;;;4.00;;
5121;SDS011;2563;52.242;7.956;2022-08-19T13:09:02;6.23;;;5.20;;
5121;SDS011;2563;52.242;7.956;2022-08-19T13:11:28;7.50;;;5.33;;
5121;SDS011;2563;52.242;7.956;2022-08-19T13:13:57;5.53;;;4.73;;
5121;SDS011;2563;52.242;7.956;2022-08-19T13:16:24;6.47;;;5.40;;
5121;SDS011;2563;52.242;7.956;2022-08-19T13:18:50;5.93;;;4.90;;
5121;SDS011;2563;52.242;7.956;2022-08-19T13:21:19;5.60;;;4.87;;
5121;SDS011;2563;52.242;7.956;2022-08-19T13:23:45;5.30;;;4.80;;
5121;SDS011;2563;52.242;7.956;2022-08-19T13:26:12;5.80;;;4.90;;
5121;SDS011;2563;52.242;7.956;2022-08-19T13:28:38;4.80;;;4.40;;
5121;SDS011;2563;52.242;7.956;2022-08-19T13:31:24;6.10;;;5.20;;
5121;SDS011;2563;52.242;7.956;2022-08-19T13:34:09;5.33;;;4.50;;
5121;SDS011;2563;52.242;7.956;2022-08-19T13:36:36;7.20;;;5.83;;
5121;SDS011;2563;52.242;7.956;2022-08-19T13:39:03;5.00;;;4.40;;
5121;SDS011;2563;52.242;7.956;2022-08-19T13:41:29;8.47;;;4.60;;
5121;SDS011;2563;52.242;7.956;2022-08-19T13:43:55;5.10;;;4.00;;
5121;SDS011;2563;52.242;7.956;2022-08-19T13:46:20;6.93;;;5.00;;
5121;SDS011;2563;52.242;7.956;2022-08-19T13:48:46;5.67;;;4.60;;
5121;SDS011;2563;52.242;7.956;2022-08-19T13:51:13;6.00;;;4.80;;
5121;SDS011;2563;52.242;7.956;2022-08-19T13:53:41;5.80;;;4.93;;
5121;SDS011;2563;52.242;7.956;2022-08-19T13:56:15;6.00;;;5.30;;
5121;SDS011;2563;52.242;7.956;2022-08-19T13:58:42;6.10;;;5.07;;
5121;SDS011;2563;52.242;7.956;2022-08-19T14:01:08;5.83;;;4.40;;
5121;SDS011;2563;52.242;7.956;2022-08-19T14:03:35;6.43;;;4.80;;
5121;SDS011;2563;52.242;7.956;2022-08-19T14:06:01;4.30;;;3.90;;
5121;SDS011;2563;52.242;7.956;2022-08-19T14:08:26;6.53;;;4.00;;
5121;SDS011;2563;52.242;7.956;2022-08-19T14:10:53;4.50;;;4.10;;
5121;SDS011;2563;52.242;7.956;2022-08-19T14:13:21;5.43;;;4.03;;
5121;SDS011;2563;52.242;7.956;2022-08-19T14:15:50;5.20;;;4.30;;
5121;SDS011;2563;52.242;7.956;2022-08-19T14:18:16;6.03;;;4.20;;
5121;SDS011;2563;52.242;7.956;2022-08-19T14:20:45;7.33;;;4.27;;
5121;SDS011;2563;52.242;7.956;2022-08-19T14:23:10;8.87;;;4.40;;
5121;SDS011;2563;52.242;7.956;2022-08-19T14:25:47;4.90;;;4.50;;
5121;SDS011;2563;52.242;7.956;2022-08-19T14:28:15;5.50;;;4.30;;
5121;SDS011;2563;52.242;7.956;2022-08-19T14:30:41;5.47;;;4.10;;
5121;SDS011;2563;52.242;7.956;2022-08-19T14:33:11;8.93;;;4.60;;
5121;SDS011;2563;52.242;7.956;2022-08-19T14:35:44;7.03;;;4.80;;
5121;SDS011;2563;52.242;7.956;2022-08-19T14:38:18;4.70;;;4.30;;
5121;SDS011;2563;52.242;7.956;2022-08-19T14:40:49;5.30;;;4.63;;
5121;SDS011;2563;52.242;7.956;2022-08-19T14:43:20;8.30;;;4.60;;
5121;SDS011;2563;52.242;7.956;2022-08-19T14:46:15;5.83;;;4.83;;
5121;SDS011;2563;52.242;7.956;2022-08-19T14:48:44;5.97;;;4.37;;
5121;SDS011;2563;52.242;7.956;2022-08-19T14:51:10;6.50;;;4.70;;
5121;SDS011;2563;52.242;7.956;2022-08-19T14:53:36;5.13;;;4.53;;
5121;SDS011;2563;52.242;7.956;2022-08-19T14:56:06;5.30;;;4.50;;
5121;SDS011;2563;52.242;7.956;2022-08-19T14:58:34;4.93;;;4.40;;
5121;SDS011;2563;52.242;7.956;2022-08-19T15:01:00;5.17;;;4.67;;
5121;SDS011;2563;52.242;7.956;2022-08-19T15:03:25;5.17;;;4.40;;
5121;SDS011;2563;52.242;7.956;2022-08-19T15:05:51;17.03;;;4.47;;
5121;SDS011;2563;52.242;7.956;2022-08-19T15:08:16;6.00;;;4.90;;
5121;SDS011;2563;52.242;7.956;2022-08-19T15:10:42;5.43;;;4.33;;
5121;SDS011;2563;52.242;7.956;2022-08-19T15:13:07;8.50;;;5.33;;
5121;SDS011;2563;52.242;7.956;2022-08-19T15:15:34;5.60;;;5.00;;
5121;SDS011;2563;52.242;7.956;2022-08-19T15:17:59;6.17;;;5.10;;